createdAt,value
2019-05-15T00:01:08.649Z,2.43
2019-05-15T00:03:39.055Z,2.30
2019-05-15T00:06:08.469Z,2.20
2019-05-15T00:08:38.699Z,2.20
2019-05-15T00:11:08.261Z,1.87
2019-05-15T00:13:38.913Z,2.07
2019-05-15T00:16:08.449Z,2.10
2019-05-15T00:18:39.143Z,2.00
2019-05-15T00:21:09.237Z,1.80
2019-05-15T00:23:38.927Z,2.20
2019-05-15T00:26:09.228Z,2.10
2019-05-15T00:28:38.936Z,2.23
2019-05-15T00:31:09.090Z,2.20
2019-05-15T00:33:39.396Z,2.10
2019-05-15T00:36:08.697Z,2.10
2019-05-15T00:38:39.018Z,2.10
2019-05-15T00:41:09.381Z,2.37
2019-05-15T00:43:38.801Z,2.40
2019-05-15T00:46:09.137Z,2.07
2019-05-15T00:48:39.775Z,2.20
2019-05-15T00:51:08.599Z,2.10
2019-05-15T00:53:39.039Z,2.23
2019-05-15T00:56:08.879Z,2.10
2019-05-15T00:58:39.936Z,2.13
2019-05-15T01:01:08.381Z,2.40
2019-05-15T01:03:38.782Z,2.57
2019-05-15T01:06:08.322Z,2.20
2019-05-15T01:08:39.398Z,1.93
2019-05-15T01:11:09.148Z,2.10
2019-05-15T01:13:38.854Z,2.20
2019-05-15T01:16:09.138Z,2.13
2019-05-15T01:18:38.628Z,2.23
2019-05-15T01:21:08.360Z,2.33
2019-05-15T01:23:39.133Z,2.27
2019-05-15T01:26:08.408Z,2.40
2019-05-15T01:28:38.359Z,2.00
2019-05-15T01:31:08.608Z,2.00
2019-05-15T01:33:39.192Z,2.10
2019-05-15T01:36:08.526Z,2.23
2019-05-15T01:38:38.809Z,2.20
2019-05-15T01:41:09.709Z,2.00
2019-05-15T01:43:38.348Z,2.13
2019-05-15T01:46:08.438Z,2.17
2019-05-15T01:48:38.740Z,2.10
2019-05-15T01:51:09.372Z,2.10
2019-05-15T01:53:38.609Z,1.90
2019-05-15T01:56:08.385Z,2.30
2019-05-15T01:58:38.271Z,2.13
2019-05-15T02:01:08.134Z,2.00
2019-05-15T02:03:38.514Z,2.00
2019-05-15T02:06:08.257Z,2.00
2019-05-15T02:08:39.196Z,1.93
2019-05-15T02:11:09.075Z,2.30
2019-05-15T02:13:38.874Z,2.13
2019-05-15T02:16:08.363Z,2.40
2019-05-15T02:18:39.101Z,2.37
2019-05-15T02:21:10.410Z,2.30
2019-05-15T02:23:38.789Z,2.07
2019-05-15T02:26:08.079Z,2.90
2019-05-15T02:28:38.443Z,2.80
2019-05-15T02:31:10.560Z,2.30
2019-05-15T02:33:39.977Z,2.50
2019-05-15T02:36:09.815Z,2.33
2019-05-15T02:38:41.005Z,2.17
2019-05-15T02:41:10.076Z,2.53
2019-05-15T02:43:39.490Z,2.43
2019-05-15T02:46:10.076Z,2.30
2019-05-15T02:48:41.072Z,2.53
2019-05-15T02:51:09.871Z,2.27
2019-05-15T02:53:39.553Z,2.20
2019-05-15T02:56:09.480Z,2.10
2019-05-15T02:58:39.844Z,2.50
2019-05-15T03:01:09.403Z,2.30
2019-05-15T03:03:39.018Z,2.37
2019-05-15T03:06:09.974Z,2.30
2019-05-15T03:08:39.837Z,2.50
2019-05-15T03:11:09.756Z,2.20
2019-05-15T03:13:39.374Z,2.87
2019-05-15T03:16:10.177Z,2.83
2019-05-15T03:18:39.777Z,2.70
2019-05-15T03:21:09.698Z,2.50
2019-05-15T03:23:40.474Z,2.70
2019-05-15T03:26:09.258Z,2.77
2019-05-15T03:28:39.233Z,2.80
2019-05-15T03:31:26.346Z,2.57
2019-05-15T03:33:46.281Z,2.60
2019-05-15T03:36:13.494Z,2.57
2019-05-15T03:38:39.826Z,2.47
2019-05-15T03:41:10.306Z,2.37
2019-05-15T03:43:39.497Z,2.57
2019-05-15T03:46:09.251Z,2.60
2019-05-15T03:48:40.200Z,2.50
2019-05-15T03:51:09.393Z,2.63
2019-05-15T03:53:40.072Z,2.40
2019-05-15T03:56:09.660Z,2.67
2019-05-15T03:58:40.199Z,2.50
2019-05-15T04:01:27.649Z,2.27
2019-05-15T04:03:39.723Z,1.90
2019-05-15T04:06:10.052Z,2.50
2019-05-15T04:08:39.415Z,2.70
2019-05-15T04:11:09.203Z,2.30
2019-05-15T04:13:39.521Z,2.23
2019-05-15T04:16:10.311Z,2.40
2019-05-15T04:18:39.731Z,2.73
2019-05-15T04:21:09.440Z,2.43
2019-05-15T04:23:39.451Z,2.50
2019-05-15T04:26:09.231Z,2.73
2019-05-15T04:28:41.600Z,2.70
2019-05-15T04:31:10.229Z,2.53
2019-05-15T04:33:39.892Z,2.67
2019-05-15T04:36:10.008Z,2.87
2019-05-15T04:38:39.613Z,2.90
2019-05-15T04:41:09.581Z,2.93
2019-05-15T04:43:44.440Z,2.90
2019-05-15T04:46:09.991Z,3.00
2019-05-15T04:48:39.897Z,2.87
2019-05-15T04:51:09.769Z,2.73
2019-05-15T04:53:39.715Z,2.70
2019-05-15T04:56:09.496Z,3.10
2019-05-15T04:58:39.446Z,2.90
2019-05-15T05:01:09.462Z,2.70
2019-05-15T05:03:39.278Z,3.10
2019-05-15T05:06:09.689Z,3.00
2019-05-15T05:08:39.708Z,3.27
2019-05-15T05:11:09.650Z,3.13
2019-05-15T05:13:39.441Z,3.20
2019-05-15T05:16:09.483Z,3.20
2019-05-15T05:18:41.005Z,3.50
2019-05-15T05:21:09.138Z,3.60
2019-05-15T05:23:38.234Z,3.30
2019-05-15T05:26:10.566Z,3.20
2019-05-15T05:28:38.120Z,3.20
2019-05-15T05:31:08.366Z,3.30
2019-05-15T05:33:38.336Z,3.30
2019-05-15T05:36:08.044Z,3.40
2019-05-15T05:38:38.732Z,3.13
2019-05-15T05:41:08.423Z,3.30
2019-05-15T05:43:38.518Z,2.90
2019-05-15T05:46:09.303Z,2.97
2019-05-15T05:48:38.834Z,3.10
2019-05-15T05:51:09.291Z,3.03
2019-05-15T05:53:38.884Z,3.43
2019-05-15T05:56:08.918Z,3.53
2019-05-15T05:58:39.104Z,7.37
2019-05-15T06:01:09.351Z,3.90
2019-05-15T06:03:39.021Z,4.00
2019-05-15T06:06:09.670Z,3.20
2019-05-15T06:08:39.437Z,4.33
2019-05-15T06:11:09.836Z,2.90
2019-05-15T06:13:39.426Z,3.13
2019-05-15T06:16:08.730Z,3.00
2019-05-15T06:18:38.776Z,3.10
2019-05-15T06:21:09.135Z,3.10
2019-05-15T06:23:45.082Z,3.20
2019-05-15T06:26:09.881Z,4.07
2019-05-15T06:28:39.585Z,4.47
2019-05-15T06:31:09.066Z,3.00
2019-05-15T06:33:38.594Z,2.63
2019-05-15T06:36:08.891Z,3.30
2019-05-15T06:38:39.392Z,3.00
2019-05-15T06:41:28.617Z,2.20
2019-05-15T06:43:58.885Z,2.40
2019-05-15T06:46:28.334Z,2.53
2019-05-15T06:48:58.113Z,2.23
2019-05-15T06:51:28.830Z,2.27
2019-05-15T06:53:58.458Z,2.50
2019-05-15T06:56:28.262Z,2.10
2019-05-15T06:58:58.281Z,2.30
2019-05-15T07:01:29.522Z,2.27
2019-05-15T07:03:59.078Z,1.80
2019-05-15T07:06:28.759Z,2.20
2019-05-15T07:08:58.785Z,2.30
2019-05-15T07:11:28.342Z,1.83
2019-05-15T07:13:58.047Z,1.90
2019-05-15T07:16:28.402Z,1.70
2019-05-15T07:18:58.937Z,1.80
2019-05-15T07:21:28.598Z,1.63
2019-05-15T07:23:58.496Z,2.03
2019-05-15T07:26:29.021Z,1.63
2019-05-15T07:28:59.594Z,1.70
2019-05-15T07:31:29.097Z,1.50
2019-05-15T07:33:59.824Z,2.00
2019-05-15T07:36:29.355Z,2.00
2019-05-15T07:38:58.593Z,1.70
2019-05-15T07:41:28.449Z,1.70
2019-05-15T07:43:58.627Z,1.70
2019-05-15T07:46:28.855Z,1.93
2019-05-15T07:48:58.528Z,1.60
2019-05-15T07:51:28.652Z,1.73
2019-05-15T07:53:58.491Z,1.60
2019-05-15T07:56:28.948Z,1.60
2019-05-15T07:58:58.690Z,1.50
2019-05-15T08:01:29.030Z,1.47
2019-05-15T08:04:14.334Z,1.53
2019-05-15T08:06:29.551Z,1.37
2019-05-15T08:08:59.200Z,1.40
2019-05-15T08:11:28.777Z,1.50
2019-05-15T08:13:58.324Z,1.33
2019-05-15T08:16:28.670Z,1.40
2019-05-15T08:18:58.247Z,1.50
2019-05-15T08:21:29.223Z,1.40
2019-05-15T08:23:59.007Z,1.20
2019-05-15T08:26:28.541Z,1.60
2019-05-15T08:28:58.031Z,1.50
2019-05-15T08:31:28.828Z,1.53
2019-05-15T08:34:12.283Z,1.30
2019-05-15T08:36:31.243Z,1.70
2019-05-15T08:39:00.303Z,1.40
2019-05-15T08:41:29.674Z,1.50
2019-05-15T08:43:58.938Z,1.40
2019-05-15T08:46:28.232Z,1.50
2019-05-15T08:48:58.282Z,1.47
2019-05-15T08:51:28.421Z,1.40
2019-05-15T08:53:58.072Z,1.30
2019-05-15T08:56:28.934Z,1.50
2019-05-15T08:58:58.404Z,1.10
2019-05-15T09:01:28.750Z,1.30
2019-05-15T09:03:58.353Z,1.23
2019-05-15T09:06:29.184Z,1.30
2019-05-15T09:08:58.713Z,1.10
2019-05-15T09:11:28.412Z,1.27
2019-05-15T09:13:59.576Z,1.20
2019-05-15T09:16:29.038Z,1.10
2019-05-15T09:18:59.217Z,1.20
2019-05-15T09:21:28.652Z,1.17
2019-05-15T09:23:58.933Z,1.10
2019-05-15T09:26:28.577Z,1.20
2019-05-15T09:28:58.502Z,1.40
2019-05-15T09:31:28.543Z,1.43
2019-05-15T09:33:58.720Z,1.37
2019-05-15T09:36:28.873Z,1.30
2019-05-15T09:38:58.574Z,1.27
2019-05-15T09:41:28.717Z,1.40
2019-05-15T09:43:58.380Z,1.57
2019-05-15T09:46:29.154Z,1.30
2019-05-15T09:48:59.406Z,1.33
2019-05-15T09:51:29.090Z,1.60
2019-05-15T09:53:59.570Z,1.40
2019-05-15T09:56:49.305Z,1.40
2019-05-15T09:59:18.961Z,1.50
2019-05-15T10:01:48.431Z,1.53
2019-05-15T10:04:19.065Z,1.20
2019-05-15T10:06:48.769Z,1.53
2019-05-15T10:09:18.906Z,1.20
2019-05-15T10:11:49.213Z,1.40
2019-05-15T10:14:19.441Z,2.03
2019-05-15T10:16:49.568Z,1.43
2019-05-15T10:19:18.911Z,1.70
2019-05-15T10:21:52.829Z,1.30
2019-05-15T10:24:19.223Z,1.30
2019-05-15T10:26:49.040Z,1.17
2019-05-15T10:29:18.692Z,1.27
2019-05-15T10:31:48.327Z,1.23
2019-05-15T10:34:18.286Z,1.50
2019-05-15T10:36:49.530Z,1.60
2019-05-15T10:39:19.010Z,1.30
2019-05-15T10:41:48.396Z,1.30
2019-05-15T10:44:18.310Z,1.33
2019-05-15T10:46:48.346Z,1.30
2019-05-15T10:49:18.825Z,1.37
2019-05-15T10:51:48.402Z,1.20
2019-05-15T10:54:19.210Z,1.50
2019-05-15T10:56:48.792Z,1.30
2019-05-15T10:59:18.405Z,1.50
2019-05-15T11:01:48.684Z,1.40
2019-05-15T11:04:18.334Z,1.20
2019-05-15T11:06:49.028Z,1.40
2019-05-15T11:09:18.738Z,1.47
2019-05-15T11:11:51.305Z,1.37
2019-05-15T11:14:19.227Z,1.50
2019-05-15T11:16:48.859Z,1.40
2019-05-15T11:19:18.331Z,1.50
2019-05-15T11:21:48.484Z,1.50
2019-05-15T11:24:19.552Z,1.53
2019-05-15T11:26:50.137Z,1.60
2019-05-15T11:29:19.389Z,1.30
2019-05-15T11:31:48.841Z,1.50
2019-05-15T11:34:18.740Z,1.30
2019-05-15T11:36:48.588Z,1.40
2019-05-15T11:39:18.357Z,3.63
2019-05-15T11:41:49.232Z,2.00
2019-05-15T11:44:18.920Z,1.30
2019-05-15T11:46:49.568Z,1.43
2019-05-15T11:49:19.262Z,1.50
2019-05-15T11:51:49.196Z,1.77
2019-05-15T11:54:19.171Z,2.20
2019-05-15T11:56:49.163Z,2.47
2019-05-15T11:59:18.661Z,1.70
2019-05-15T12:01:48.882Z,2.70
2019-05-15T12:04:27.633Z,1.50
2019-05-15T12:06:58.646Z,1.30
2019-05-15T12:09:20.471Z,1.70
2019-05-15T12:11:49.730Z,1.30
2019-05-15T12:14:19.648Z,1.30
2019-05-15T12:17:05.366Z,1.50
2019-05-15T12:19:20.103Z,1.40
2019-05-15T12:21:49.436Z,1.50
2019-05-15T12:24:18.750Z,1.40
2019-05-15T12:29:19.122Z,1.50
2019-05-15T12:31:49.581Z,1.40
2019-05-15T12:34:19.129Z,1.40
2019-05-15T12:36:56.721Z,1.40
2019-05-15T12:39:22.066Z,1.30
2019-05-15T12:39:23.613Z,1.30
2019-05-15T13:01:58.793Z,1.10
2019-05-15T13:04:28.529Z,1.40
2019-05-15T13:07:12.100Z,1.20
2019-05-15T13:09:28.802Z,1.60
2019-05-15T13:11:58.087Z,1.40
2019-05-15T13:14:28.411Z,1.03
2019-05-15T13:16:58.929Z,1.27
2019-05-15T13:19:28.726Z,1.60
2019-05-15T13:21:58.091Z,2.10
2019-05-15T13:24:28.448Z,1.50
2019-05-15T13:26:58.341Z,1.20
2019-05-15T13:29:28.979Z,5.20
2019-05-15T13:31:58.569Z,3.70
2019-05-15T13:34:30.618Z,1.27
2019-05-15T13:36:59.315Z,1.33
2019-05-15T13:39:28.857Z,1.40
2019-05-15T13:41:58.520Z,2.40
2019-05-15T13:44:29.315Z,1.30
2019-05-15T13:46:58.958Z,1.20
2019-05-15T13:49:28.322Z,1.17
2019-05-15T13:51:59.326Z,1.17
2019-05-15T13:54:28.886Z,1.30
2019-05-15T13:56:58.364Z,1.43
2019-05-15T13:59:28.534Z,1.90
2019-05-15T14:01:59.483Z,1.50
2019-05-15T14:04:29.932Z,1.00
2019-05-15T14:06:59.477Z,1.10
2019-05-15T14:09:33.232Z,1.10
2019-05-15T14:11:59.807Z,1.30
2019-05-15T14:14:29.132Z,1.60
2019-05-15T14:16:59.221Z,1.20
2019-05-15T14:19:28.714Z,1.50
2019-05-15T14:21:58.538Z,1.50
2019-05-15T14:24:27.978Z,1.13
2019-05-15T14:26:59.325Z,1.67
2019-05-15T14:29:29.201Z,1.60
2019-05-15T14:31:58.799Z,1.30
2019-05-15T14:34:29.075Z,1.00
2019-05-15T14:36:59.120Z,1.30
2019-05-15T14:39:28.751Z,1.30
2019-05-15T14:41:58.428Z,1.20
2019-05-15T14:44:27.762Z,1.13
2019-05-15T14:46:58.259Z,1.20
2019-05-15T14:49:34.214Z,1.17
2019-05-15T14:52:08.505Z,1.30
2019-05-15T14:54:29.826Z,1.20
2019-05-15T14:56:59.082Z,1.40
2019-05-15T14:59:28.404Z,1.17
2019-05-15T15:01:58.076Z,1.63
2019-05-15T15:04:28.998Z,1.70
2019-05-15T15:06:58.534Z,1.33
2019-05-15T15:09:28.286Z,1.20
2019-05-15T15:11:57.799Z,1.33
2019-05-15T15:14:28.482Z,1.17
2019-05-15T15:16:58.087Z,1.37
2019-05-15T15:19:29.317Z,1.83
2019-05-15T15:21:58.404Z,1.07
2019-05-15T15:24:27.699Z,1.47
2019-05-15T15:26:58.862Z,1.40
2019-05-15T15:29:28.209Z,1.10
2019-05-15T15:31:58.955Z,1.20
2019-05-15T15:34:28.476Z,1.10
2019-05-15T15:36:58.111Z,1.07
2019-05-15T15:39:28.111Z,1.30
2019-05-15T15:41:57.889Z,1.50
2019-05-15T15:44:28.208Z,1.30
2019-05-15T15:46:59.111Z,1.10
2019-05-15T15:49:28.951Z,1.10
2019-05-15T15:51:58.264Z,1.03
2019-05-15T15:54:28.141Z,1.20
2019-05-15T15:56:57.617Z,1.00
2019-05-15T15:59:28.906Z,1.20
2019-05-15T16:02:00.439Z,1.10
2019-05-15T16:04:29.767Z,1.10
2019-05-15T16:06:59.152Z,1.10
2019-05-15T16:09:28.421Z,1.20
2019-05-15T16:11:58.395Z,1.30
2019-05-15T16:14:28.675Z,1.20
2019-05-15T16:16:58.050Z,1.37
2019-05-15T16:19:28.390Z,1.10
2019-05-15T16:21:59.542Z,1.40
2019-05-15T16:24:29.351Z,1.20
2019-05-15T16:27:00.944Z,1.20
2019-05-15T16:29:29.812Z,1.23
2019-05-15T16:31:59.100Z,1.40
2019-05-15T16:34:28.545Z,1.20
2019-05-15T16:36:58.494Z,1.17
2019-05-15T16:39:28.741Z,1.50
2019-05-15T16:41:59.399Z,1.23
2019-05-15T16:44:29.088Z,1.10
2019-05-15T16:46:58.888Z,1.10
2019-05-15T16:49:28.536Z,1.20
2019-05-15T16:51:58.386Z,1.20
2019-05-15T16:54:28.863Z,1.30
2019-05-15T16:56:59.490Z,1.10
2019-05-15T16:59:35.558Z,1.40
2019-05-15T17:02:00.053Z,1.27
2019-05-15T17:04:29.468Z,1.10
2019-05-15T17:06:58.863Z,1.20
2019-05-15T17:09:28.196Z,1.00
2019-05-15T17:11:58.187Z,1.10
2019-05-15T17:14:28.717Z,1.20
2019-05-15T17:16:58.774Z,1.20
2019-05-15T17:19:29.395Z,1.30
2019-05-15T17:21:58.976Z,1.33
2019-05-15T17:24:28.506Z,1.00
2019-05-15T17:26:59.547Z,1.10
2019-05-15T17:29:29.239Z,1.33
2019-05-15T17:31:58.707Z,1.30
2019-05-15T17:34:28.578Z,1.20
2019-05-15T17:36:58.361Z,1.10
2019-05-15T17:39:36.577Z,1.10
2019-05-15T17:41:59.451Z,1.10
2019-05-15T17:44:28.831Z,1.03
2019-05-15T17:46:58.500Z,1.20
2019-05-15T17:49:28.148Z,1.40
2019-05-15T17:51:58.185Z,1.10
2019-05-15T17:54:28.748Z,1.10
2019-05-15T17:56:58.547Z,1.10
2019-05-15T17:59:28.758Z,1.20
2019-05-15T18:01:59.503Z,1.30
2019-05-15T18:04:29.077Z,1.10
2019-05-15T18:06:59.055Z,1.30
2019-05-15T18:09:28.562Z,1.50
2019-05-15T18:11:58.645Z,1.10
2019-05-15T18:14:28.302Z,1.20
2019-05-15T18:16:58.566Z,1.20
2019-05-15T18:19:28.161Z,1.10
2019-05-15T18:21:59.232Z,1.20
2019-05-15T18:24:28.502Z,1.30
2019-05-15T18:26:58.442Z,1.27
2019-05-15T18:29:28.060Z,1.33
2019-05-15T18:31:57.378Z,1.17
2019-05-15T18:34:28.770Z,1.27
2019-05-15T18:36:57.906Z,1.03
2019-05-15T18:39:28.352Z,1.10
2019-05-15T18:41:57.901Z,1.30
2019-05-15T18:44:28.302Z,1.40
2019-05-15T18:46:58.251Z,1.40
2019-05-15T18:49:28.489Z,1.27
2019-05-15T18:51:58.288Z,1.20
2019-05-15T18:54:28.077Z,1.30
2019-05-15T18:56:58.423Z,1.30
2019-05-15T18:59:28.103Z,1.30
2019-05-15T19:01:58.634Z,1.43
2019-05-15T19:04:28.907Z,1.80
2019-05-15T19:06:58.467Z,2.90
2019-05-15T19:09:28.219Z,1.40
2019-05-15T19:11:58.145Z,1.40
2019-05-15T19:14:28.034Z,1.30
2019-05-15T19:16:59.165Z,1.50
2019-05-15T19:19:28.728Z,1.60
2019-05-15T19:21:58.309Z,1.37
2019-05-15T19:24:27.894Z,1.70
2019-05-15T19:26:58.656Z,1.40
2019-05-15T19:29:28.524Z,1.37
2019-05-15T19:31:58.011Z,1.50
2019-05-15T19:34:28.129Z,1.30
2019-05-15T19:36:58.173Z,1.30
2019-05-15T19:39:28.039Z,1.40
2019-05-15T19:41:58.263Z,1.40
2019-05-15T19:44:28.518Z,1.77
2019-05-15T19:46:58.655Z,2.13
2019-05-15T19:49:28.168Z,1.80
2019-05-15T19:51:58.132Z,1.70
2019-05-15T19:54:28.918Z,1.20
2019-05-15T19:56:59.244Z,1.40
2019-05-15T19:59:29.501Z,1.50
2019-05-15T20:01:59.231Z,1.80
2019-05-15T20:04:28.674Z,1.50
2019-05-15T20:06:58.183Z,1.90
2019-05-15T20:09:27.855Z,1.53
2019-05-15T20:11:58.525Z,1.80
2019-05-15T20:14:28.852Z,1.70
2019-05-15T20:16:58.935Z,1.63
2019-05-15T20:19:28.821Z,1.70
2019-05-15T20:21:58.420Z,1.70
2019-05-15T20:24:28.768Z,1.80
2019-05-15T20:26:58.427Z,1.73
2019-05-15T20:29:28.947Z,1.90
2019-05-15T20:31:58.734Z,1.80
2019-05-15T20:34:28.746Z,1.50
2019-05-15T20:36:58.853Z,1.90
2019-05-15T20:39:28.319Z,1.80
2019-05-15T20:41:58.302Z,1.83
2019-05-15T20:44:27.877Z,1.80
2019-05-15T20:46:58.958Z,1.90
2019-05-15T20:49:28.705Z,1.80
2019-05-15T20:51:58.307Z,1.67
2019-05-15T20:54:28.464Z,1.50
2019-05-15T20:56:58.425Z,1.70
2019-05-15T20:59:27.926Z,3.50
2019-05-15T21:01:59.327Z,1.50
2019-05-15T21:04:28.370Z,1.87
2019-05-15T21:06:57.693Z,1.63
2019-05-15T21:09:28.456Z,1.73
2019-05-15T21:11:58.793Z,1.40
2019-05-15T21:14:28.252Z,1.50
2019-05-15T21:16:59.020Z,1.60
2019-05-15T21:19:28.598Z,1.30
2019-05-15T21:21:58.159Z,1.43
2019-05-15T21:24:28.359Z,1.47
2019-05-15T21:26:58.223Z,1.90
2019-05-15T21:29:27.645Z,2.30
2019-05-15T21:31:58.062Z,1.60
2019-05-15T21:34:37.403Z,1.50
2019-05-15T21:36:59.118Z,1.57
2019-05-15T21:39:30.249Z,1.40
2019-05-15T21:41:59.568Z,1.83
2019-05-15T21:44:29.444Z,1.50
2019-05-15T21:46:58.900Z,1.70
2019-05-15T21:49:28.271Z,1.60
2019-05-15T21:51:58.416Z,2.20
2019-05-15T21:54:28.281Z,1.73
2019-05-15T21:57:12.924Z,1.60
2019-05-15T21:59:28.659Z,1.60
2019-05-15T22:01:58.931Z,1.83
2019-05-15T22:04:30.584Z,1.50
2019-05-15T22:06:59.470Z,1.70
2019-05-15T22:09:29.163Z,1.70
2019-05-15T22:12:01.193Z,2.00
2019-05-15T22:14:30.846Z,1.70
2019-05-15T22:17:00.181Z,1.50
2019-05-15T22:19:30.328Z,2.00
2019-05-15T22:21:59.661Z,1.50
2019-05-15T22:24:29.335Z,1.40
2019-05-15T22:26:58.775Z,1.80
2019-05-15T22:29:28.861Z,1.77
2019-05-15T22:31:59.075Z,2.00
2019-05-15T22:34:28.608Z,1.80
2019-05-15T22:36:58.335Z,1.60
2019-05-15T22:39:28.110Z,2.23
2019-05-15T22:41:57.611Z,2.97
2019-05-15T22:44:28.147Z,2.50
2019-05-15T22:46:58.162Z,2.17
2019-05-15T22:49:28.852Z,2.40
2019-05-15T22:51:58.349Z,2.40
2019-05-15T22:54:28.116Z,2.77
2019-05-15T22:56:57.796Z,2.60
2019-05-15T22:59:28.383Z,2.63
2019-05-15T23:01:58.203Z,2.63
2019-05-15T23:04:28.709Z,2.80
2019-05-15T23:06:58.193Z,2.70
2019-05-15T23:09:28.419Z,2.80
2019-05-15T23:11:58.874Z,2.30
2019-05-15T23:14:28.794Z,2.40
2019-05-15T23:16:59.026Z,3.10
2019-05-15T23:19:28.554Z,3.13
2019-05-15T23:21:59.068Z,2.50
2019-05-15T23:24:28.586Z,2.27
2019-05-15T23:26:58.293Z,2.10
2019-05-15T23:29:27.799Z,2.63
2019-05-15T23:31:58.379Z,2.70
2019-05-15T23:34:28.068Z,2.47
2019-05-15T23:36:57.730Z,2.70
2019-05-15T23:39:27.034Z,2.80
2019-05-15T23:41:58.327Z,2.33
2019-05-15T23:44:27.733Z,2.60
2019-05-15T23:46:57.040Z,3.13
2019-05-15T23:49:27.898Z,3.40
2019-05-15T23:51:58.226Z,3.50
2019-05-15T23:54:27.980Z,3.30
2019-05-15T23:56:58.361Z,4.17
2019-05-15T23:59:28.191Z,3.53
